sensor_id;sensor_type;location;lat;lon;timestamp;P1;durP1;ratioP1;P2;durP2;ratioP2
37164;SDS011;23057;48.554;14.454;2022-11-11T00:02:27;7.53;;;4.35;;
37164;SDS011;23057;48.554;14.454;2022-11-11T00:04:58;6.38;;;4.20;;
37164;SDS011;23057;48.554;14.454;2022-11-11T00:07:29;6.18;;;3.53;;
37164;SDS011;23057;48.554;14.454;2022-11-11T00:10:00;9.65;;;4.70;;
37164;SDS011;23057;48.554;14.454;2022-11-11T00:12:31;8.98;;;4.10;;
37164;SDS011;23057;48.554;14.454;2022-11-11T00:15:02;8.98;;;5.53;;
37164;SDS011;23057;48.554;14.454;2022-11-11T00:17:34;11.52;;;4.72;;
37164;SDS011;23057;48.554;14.454;2022-11-11T00:20:23;5.38;;;4.22;;
37164;SDS011;23057;48.554;14.454;2022-11-11T00:23:21;6.53;;;4.10;;
37164;SDS011;23057;48.554;14.454;2022-11-11T00:26:14;9.45;;;4.15;;
37164;SDS011;23057;48.554;14.454;2022-11-11T00:28:45;5.80;;;4.63;;
37164;SDS011;23057;48.554;14.454;2022-11-11T00:31:16;8.50;;;5.22;;
37164;SDS011;23057;48.554;14.454;2022-11-11T00:33:47;14.32;;;6.25;;
37164;SDS011;23057;48.554;14.454;2022-11-11T00:36:17;8.82;;;5.45;;
37164;SDS011;23057;48.554;14.454;2022-11-11T00:38:48;13.23;;;5.65;;
37164;SDS011;23057;48.554;14.454;2022-11-11T00:41:22;7.38;;;4.22;;
37164;SDS011;23057;48.554;14.454;2022-11-11T00:43:56;7.97;;;5.32;;
37164;SDS011;23057;48.554;14.454;2022-11-11T00:46:26;10.23;;;6.00;;
37164;SDS011;23057;48.554;14.454;2022-11-11T00:49:16;13.88;;;4.95;;
37164;SDS011;23057;48.554;14.454;2022-11-11T00:52:05;6.25;;;4.45;;
37164;SDS011;23057;48.554;14.454;2022-11-11T00:54:36;9.13;;;4.00;;
37164;SDS011;23057;48.554;14.454;2022-11-11T00:57:07;14.05;;;5.07;;
37164;SDS011;23057;48.554;14.454;2022-11-11T00:59:38;14.20;;;5.45;;
37164;SDS011;23057;48.554;14.454;2022-11-11T01:02:09;9.98;;;4.60;;
37164;SDS011;23057;48.554;14.454;2022-11-11T01:04:40;26.40;;;4.35;;
37164;SDS011;23057;48.554;14.454;2022-11-11T01:07:11;10.68;;;3.72;;
37164;SDS011;23057;48.554;14.454;2022-11-11T01:09:42;18.52;;;3.90;;
37164;SDS011;23057;48.554;14.454;2022-11-11T01:12:13;29.35;;;4.55;;
37164;SDS011;23057;48.554;14.454;2022-11-11T01:14:45;5.28;;;3.42;;
37164;SDS011;23057;48.554;14.454;2022-11-11T01:17:16;17.73;;;5.00;;
37164;SDS011;23057;48.554;14.454;2022-11-11T01:19:47;6.15;;;4.60;;
37164;SDS011;23057;48.554;14.454;2022-11-11T01:22:17;8.85;;;4.72;;
37164;SDS011;23057;48.554;14.454;2022-11-11T01:24:48;12.63;;;5.43;;
37164;SDS011;23057;48.554;14.454;2022-11-11T01:27:19;12.20;;;5.80;;
37164;SDS011;23057;48.554;14.454;2022-11-11T01:29:50;12.13;;;4.90;;
37164;SDS011;23057;48.554;14.454;2022-11-11T01:32:21;13.90;;;5.18;;
37164;SDS011;23057;48.554;14.454;2022-11-11T01:34:51;10.68;;;4.75;;
37164;SDS011;23057;48.554;14.454;2022-11-11T01:37:22;6.40;;;4.53;;
37164;SDS011;23057;48.554;14.454;2022-11-11T01:39:53;10.05;;;4.80;;
37164;SDS011;23057;48.554;14.454;2022-11-11T01:42:24;7.40;;;5.03;;
37164;SDS011;23057;48.554;14.454;2022-11-11T01:44:55;6.18;;;4.20;;
37164;SDS011;23057;48.554;14.454;2022-11-11T01:47:26;15.75;;;4.32;;
37164;SDS011;23057;48.554;14.454;2022-11-11T01:50:17;6.28;;;4.32;;
37164;SDS011;23057;48.554;14.454;2022-11-11T01:52:48;7.78;;;5.38;;
37164;SDS011;23057;48.554;14.454;2022-11-11T01:55:19;11.75;;;5.20;;
37164;SDS011;23057;48.554;14.454;2022-11-11T01:57:53;10.50;;;5.07;;
37164;SDS011;23057;48.554;14.454;2022-11-11T02:00:44;14.35;;;5.50;;
37164;SDS011;23057;48.554;14.454;2022-11-11T02:03:14;11.27;;;5.75;;
37164;SDS011;23057;48.554;14.454;2022-11-11T02:05:52;16.23;;;5.45;;
37164;SDS011;23057;48.554;14.454;2022-11-11T02:08:27;14.10;;;5.70;;
37164;SDS011;23057;48.554;14.454;2022-11-11T02:11:08;15.10;;;5.15;;
37164;SDS011;23057;48.554;14.454;2022-11-11T02:14:10;7.47;;;4.88;;
37164;SDS011;23057;48.554;14.454;2022-11-11T02:16:59;9.00;;;4.60;;
37164;SDS011;23057;48.554;14.454;2022-11-11T02:25:18;4.50;;;3.20;;
37164;SDS011;23057;48.554;14.454;2022-11-11T02:27:56;2.80;;;2.47;;
37164;SDS011;23057;48.554;14.454;2022-11-11T02:30:34;5.30;;;3.42;;
37164;SDS011;23057;48.554;14.454;2022-11-11T02:33:05;10.20;;;3.60;;
37164;SDS011;23057;48.554;14.454;2022-11-11T02:35:37;5.60;;;3.58;;
37164;SDS011;23057;48.554;14.454;2022-11-11T02:38:17;4.93;;;3.83;;
37164;SDS011;23057;48.554;14.454;2022-11-11T02:40:48;8.82;;;3.83;;
37164;SDS011;23057;48.554;14.454;2022-11-11T02:43:37;5.65;;;3.83;;
37164;SDS011;23057;48.554;14.454;2022-11-11T02:46:08;7.78;;;3.33;;
37164;SDS011;23057;48.554;14.454;2022-11-11T02:48:39;8.75;;;3.65;;
37164;SDS011;23057;48.554;14.454;2022-11-11T02:51:10;16.10;;;4.30;;
37164;SDS011;23057;48.554;14.454;2022-11-11T02:53:41;6.80;;;3.40;;
37164;SDS011;23057;48.554;14.454;2022-11-11T02:56:12;4.68;;;3.30;;
37164;SDS011;23057;48.554;14.454;2022-11-11T02:59:02;5.13;;;3.53;;
37164;SDS011;23057;48.554;14.454;2022-11-11T03:01:33;5.72;;;3.72;;
37164;SDS011;23057;48.554;14.454;2022-11-11T03:04:04;4.78;;;3.50;;
37164;SDS011;23057;48.554;14.454;2022-11-11T03:06:35;5.10;;;3.70;;
37164;SDS011;23057;48.554;14.454;2022-11-11T03:09:06;8.65;;;3.47;;
37164;SDS011;23057;48.554;14.454;2022-11-11T03:11:37;5.53;;;4.00;;
37164;SDS011;23057;48.554;14.454;2022-11-11T03:14:08;4.30;;;3.13;;
37164;SDS011;23057;48.554;14.454;2022-11-11T03:16:39;5.72;;;3.22;;
37164;SDS011;23057;48.554;14.454;2022-11-11T03:19:28;5.40;;;3.42;;
37164;SDS011;23057;48.554;14.454;2022-11-11T03:21:59;12.15;;;5.50;;
37164;SDS011;23057;48.554;14.454;2022-11-11T03:24:32;8.27;;;4.72;;
37164;SDS011;23057;48.554;14.454;2022-11-11T03:27:21;8.75;;;4.22;;
37164;SDS011;23057;48.554;14.454;2022-11-11T03:29:52;10.90;;;4.63;;
37164;SDS011;23057;48.554;14.454;2022-11-11T03:32:23;10.90;;;4.43;;
37164;SDS011;23057;48.554;14.454;2022-11-11T03:34:54;6.22;;;4.40;;
37164;SDS011;23057;48.554;14.454;2022-11-11T03:37:25;5.03;;;3.67;;
37164;SDS011;23057;48.554;14.454;2022-11-11T03:40:14;7.65;;;4.10;;
37164;SDS011;23057;48.554;14.454;2022-11-11T03:42:45;11.98;;;4.53;;
37164;SDS011;23057;48.554;14.454;2022-11-11T03:45:16;8.02;;;4.50;;
37164;SDS011;23057;48.554;14.454;2022-11-11T03:47:47;9.10;;;4.50;;
37164;SDS011;23057;48.554;14.454;2022-11-11T03:50:18;8.07;;;4.22;;
37164;SDS011;23057;48.554;14.454;2022-11-11T03:52:49;13.43;;;4.60;;
37164;SDS011;23057;48.554;14.454;2022-11-11T03:55:19;9.20;;;5.00;;
37164;SDS011;23057;48.554;14.454;2022-11-11T03:57:50;6.60;;;4.68;;
37164;SDS011;23057;48.554;14.454;2022-11-11T04:00:22;11.05;;;4.50;;
37164;SDS011;23057;48.554;14.454;2022-11-11T04:03:10;5.88;;;3.80;;
37164;SDS011;23057;48.554;14.454;2022-11-11T04:06:07;7.75;;;3.90;;
37164;SDS011;23057;48.554;14.454;2022-11-11T04:08:58;7.57;;;3.72;;
37164;SDS011;23057;48.554;14.454;2022-11-11T04:11:47;5.65;;;3.63;;
37164;SDS011;23057;48.554;14.454;2022-11-11T04:14:18;6.75;;;3.65;;
37164;SDS011;23057;48.554;14.454;2022-11-11T04:17:08;9.15;;;3.40;;
37164;SDS011;23057;48.554;14.454;2022-11-11T04:19:38;6.10;;;4.28;;
37164;SDS011;23057;48.554;14.454;2022-11-11T04:22:28;5.55;;;3.45;;
37164;SDS011;23057;48.554;14.454;2022-11-11T04:24:58;4.97;;;3.47;;
37164;SDS011;23057;48.554;14.454;2022-11-11T04:27:48;3.65;;;3.00;;
37164;SDS011;23057;48.554;14.454;2022-11-11T04:30:39;6.03;;;3.10;;
37164;SDS011;23057;48.554;14.454;2022-11-11T04:33:09;6.50;;;3.78;;
37164;SDS011;23057;48.554;14.454;2022-11-11T04:35:40;7.00;;;3.85;;
37164;SDS011;23057;48.554;14.454;2022-11-11T04:38:11;5.15;;;3.33;;
37164;SDS011;23057;48.554;14.454;2022-11-11T04:41:00;6.47;;;4.50;;
37164;SDS011;23057;48.554;14.454;2022-11-11T04:43:35;6.35;;;3.63;;
37164;SDS011;23057;48.554;14.454;2022-11-11T04:46:26;4.97;;;3.47;;
37164;SDS011;23057;48.554;14.454;2022-11-11T04:48:57;9.82;;;4.03;;
37164;SDS011;23057;48.554;14.454;2022-11-11T04:51:27;6.38;;;3.95;;
37164;SDS011;23057;48.554;14.454;2022-11-11T04:54:18;5.97;;;3.92;;
37164;SDS011;23057;48.554;14.454;2022-11-11T04:56:49;15.85;;;4.65;;
37164;SDS011;23057;48.554;14.454;2022-11-11T04:59:20;11.98;;;4.40;;
37164;SDS011;23057;48.554;14.454;2022-11-11T05:01:51;11.13;;;4.22;;
37164;SDS011;23057;48.554;14.454;2022-11-11T05:04:40;8.90;;;4.07;;
37164;SDS011;23057;48.554;14.454;2022-11-11T05:07:11;7.88;;;4.53;;
37164;SDS011;23057;48.554;14.454;2022-11-11T05:10:12;6.75;;;3.90;;
37164;SDS011;23057;48.554;14.454;2022-11-11T05:12:45;5.57;;;3.58;;
37164;SDS011;23057;48.554;14.454;2022-11-11T05:15:16;4.85;;;3.15;;
37164;SDS011;23057;48.554;14.454;2022-11-11T05:18:06;6.05;;;3.13;;
37164;SDS011;23057;48.554;14.454;2022-11-11T05:20:57;5.07;;;3.50;;
37164;SDS011;23057;48.554;14.454;2022-11-11T05:23:47;4.88;;;3.28;;
37164;SDS011;23057;48.554;14.454;2022-11-11T05:26:38;5.63;;;3.80;;
37164;SDS011;23057;48.554;14.454;2022-11-11T05:29:09;8.75;;;3.47;;
37164;SDS011;23057;48.554;14.454;2022-11-11T05:31:40;11.23;;;4.10;;
37164;SDS011;23057;48.554;14.454;2022-11-11T05:34:10;5.45;;;3.50;;
37164;SDS011;23057;48.554;14.454;2022-11-11T05:36:41;8.07;;;3.55;;
37164;SDS011;23057;48.554;14.454;2022-11-11T05:39:12;5.30;;;3.47;;
37164;SDS011;23057;48.554;14.454;2022-11-11T05:41:43;10.02;;;3.90;;
37164;SDS011;23057;48.554;14.454;2022-11-11T05:44:14;6.63;;;3.25;;
37164;SDS011;23057;48.554;14.454;2022-11-11T05:46:45;5.85;;;3.40;;
37164;SDS011;23057;48.554;14.454;2022-11-11T05:49:15;8.43;;;3.65;;
37164;SDS011;23057;48.554;14.454;2022-11-11T05:51:47;10.60;;;3.78;;
37164;SDS011;23057;48.554;14.454;2022-11-11T05:54:18;14.43;;;3.90;;
37164;SDS011;23057;48.554;14.454;2022-11-11T05:56:49;9.52;;;4.88;;
37164;SDS011;23057;48.554;14.454;2022-11-11T05:59:20;8.20;;;3.70;;
37164;SDS011;23057;48.554;14.454;2022-11-11T06:01:51;5.55;;;3.40;;
37164;SDS011;23057;48.554;14.454;2022-11-11T06:04:23;5.18;;;3.00;;
37164;SDS011;23057;48.554;14.454;2022-11-11T06:06:54;6.60;;;3.67;;
37164;SDS011;23057;48.554;14.454;2022-11-11T06:09:25;6.15;;;3.58;;
37164;SDS011;23057;48.554;14.454;2022-11-11T06:11:56;16.15;;;5.70;;
37164;SDS011;23057;48.554;14.454;2022-11-11T06:14:27;46.25;;;13.07;;
37164;SDS011;23057;48.554;14.454;2022-11-11T06:16:58;61.80;;;17.30;;
37164;SDS011;23057;48.554;14.454;2022-11-11T06:19:29;53.63;;;14.40;;
37164;SDS011;23057;48.554;14.454;2022-11-11T06:22:00;30.90;;;10.98;;
37164;SDS011;23057;48.554;14.454;2022-11-11T06:24:33;24.38;;;10.52;;
37164;SDS011;23057;48.554;14.454;2022-11-11T06:27:04;23.60;;;9.75;;
37164;SDS011;23057;48.554;14.454;2022-11-11T06:29:34;20.13;;;5.82;;
37164;SDS011;23057;48.554;14.454;2022-11-11T06:32:06;10.35;;;4.38;;
37164;SDS011;23057;48.554;14.454;2022-11-11T06:34:36;25.23;;;10.02;;
37164;SDS011;23057;48.554;14.454;2022-11-11T06:37:07;7.90;;;4.82;;
37164;SDS011;23057;48.554;14.454;2022-11-11T06:39:38;18.23;;;4.70;;
37164;SDS011;23057;48.554;14.454;2022-11-11T06:42:09;11.60;;;5.30;;
37164;SDS011;23057;48.554;14.454;2022-11-11T06:44:40;20.65;;;6.00;;
37164;SDS011;23057;48.554;14.454;2022-11-11T06:47:10;8.70;;;4.10;;
37164;SDS011;23057;48.554;14.454;2022-11-11T06:49:41;11.35;;;4.70;;
37164;SDS011;23057;48.554;14.454;2022-11-11T06:52:12;7.93;;;4.15;;
37164;SDS011;23057;48.554;14.454;2022-11-11T06:54:43;5.30;;;4.10;;
37164;SDS011;23057;48.554;14.454;2022-11-11T06:57:14;6.13;;;3.30;;
37164;SDS011;23057;48.554;14.454;2022-11-11T06:59:45;11.70;;;3.88;;
37164;SDS011;23057;48.554;14.454;2022-11-11T07:02:19;18.80;;;6.13;;
37164;SDS011;23057;48.554;14.454;2022-11-11T07:04:53;4.55;;;3.03;;
37164;SDS011;23057;48.554;14.454;2022-11-11T07:07:24;7.68;;;4.63;;
37164;SDS011;23057;48.554;14.454;2022-11-11T07:09:57;6.57;;;3.38;;
37164;SDS011;23057;48.554;14.454;2022-11-11T07:12:28;7.40;;;3.92;;
37164;SDS011;23057;48.554;14.454;2022-11-11T07:14:59;7.20;;;4.65;;
37164;SDS011;23057;48.554;14.454;2022-11-11T07:17:30;7.50;;;4.95;;
37164;SDS011;23057;48.554;14.454;2022-11-11T07:20:01;12.68;;;6.13;;
37164;SDS011;23057;48.554;14.454;2022-11-11T07:22:36;9.70;;;6.47;;
37164;SDS011;23057;48.554;14.454;2022-11-11T07:25:07;7.38;;;4.22;;
37164;SDS011;23057;48.554;14.454;2022-11-11T07:27:39;8.32;;;4.50;;
37164;SDS011;23057;48.554;14.454;2022-11-11T07:30:11;8.30;;;5.25;;
37164;SDS011;23057;48.554;14.454;2022-11-11T07:32:43;10.57;;;5.88;;
37164;SDS011;23057;48.554;14.454;2022-11-11T07:35:18;11.95;;;7.07;;
37164;SDS011;23057;48.554;14.454;2022-11-11T07:37:50;7.05;;;4.60;;
37164;SDS011;23057;48.554;14.454;2022-11-11T07:40:21;9.07;;;5.13;;
37164;SDS011;23057;48.554;14.454;2022-11-11T07:42:52;9.55;;;5.20;;
37164;SDS011;23057;48.554;14.454;2022-11-11T07:45:23;14.25;;;5.10;;
37164;SDS011;23057;48.554;14.454;2022-11-11T07:47:54;16.88;;;5.18;;
37164;SDS011;23057;48.554;14.454;2022-11-11T07:50:24;10.43;;;5.22;;
37164;SDS011;23057;48.554;14.454;2022-11-11T07:52:55;7.90;;;5.25;;
37164;SDS011;23057;48.554;14.454;2022-11-11T07:55:26;9.05;;;5.53;;
37164;SDS011;23057;48.554;14.454;2022-11-11T07:57:57;9.55;;;5.60;;
37164;SDS011;23057;48.554;14.454;2022-11-11T08:00:28;10.55;;;5.18;;
37164;SDS011;23057;48.554;14.454;2022-11-11T08:02:59;8.52;;;5.18;;
37164;SDS011;23057;48.554;14.454;2022-11-11T08:05:30;8.35;;;4.90;;
37164;SDS011;23057;48.554;14.454;2022-11-11T08:08:04;8.13;;;4.93;;
37164;SDS011;23057;48.554;14.454;2022-11-11T08:10:36;7.15;;;4.70;;
37164;SDS011;23057;48.554;14.454;2022-11-11T08:13:08;7.85;;;4.68;;
37164;SDS011;23057;48.554;14.454;2022-11-11T08:15:59;5.38;;;3.90;;
37164;SDS011;23057;48.554;14.454;2022-11-11T08:18:32;5.55;;;3.85;;
37164;SDS011;23057;48.554;14.454;2022-11-11T08:21:04;6.63;;;4.15;;
37164;SDS011;23057;48.554;14.454;2022-11-11T08:23:36;6.55;;;4.22;;
37164;SDS011;23057;48.554;14.454;2022-11-11T08:26:07;6.57;;;4.15;;
37164;SDS011;23057;48.554;14.454;2022-11-11T08:28:38;6.75;;;4.40;;
37164;SDS011;23057;48.554;14.454;2022-11-11T08:31:09;7.35;;;4.70;;
37164;SDS011;23057;48.554;14.454;2022-11-11T08:33:40;6.95;;;4.22;;
37164;SDS011;23057;48.554;14.454;2022-11-11T08:36:11;7.55;;;4.90;;
37164;SDS011;23057;48.554;14.454;2022-11-11T08:38:43;6.90;;;4.72;;
37164;SDS011;23057;48.554;14.454;2022-11-11T08:41:14;8.25;;;5.25;;
37164;SDS011;23057;48.554;14.454;2022-11-11T08:43:45;7.10;;;5.07;;
37164;SDS011;23057;48.554;14.454;2022-11-11T08:46:16;6.93;;;4.70;;
37164;SDS011;23057;48.554;14.454;2022-11-11T08:48:47;6.13;;;4.07;;
37164;SDS011;23057;48.554;14.454;2022-11-11T08:51:18;9.18;;;5.43;;
37164;SDS011;23057;48.554;14.454;2022-11-11T08:53:49;10.98;;;6.80;;
37164;SDS011;23057;48.554;14.454;2022-11-11T08:56:20;10.48;;;6.22;;
37164;SDS011;23057;48.554;14.454;2022-11-11T08:58:51;7.35;;;6.10;;
37164;SDS011;23057;48.554;14.454;2022-11-11T09:01:22;9.68;;;7.03;;
37164;SDS011;23057;48.554;14.454;2022-11-11T09:03:52;10.10;;;5.93;;
37164;SDS011;23057;48.554;14.454;2022-11-11T09:06:23;9.48;;;5.15;;
37164;SDS011;23057;48.554;14.454;2022-11-11T09:08:54;5.60;;;4.22;;
37164;SDS011;23057;48.554;14.454;2022-11-11T09:11:25;6.90;;;4.68;;
37164;SDS011;23057;48.554;14.454;2022-11-11T09:13:57;7.00;;;4.78;;
37164;SDS011;23057;48.554;14.454;2022-11-11T09:16:28;9.40;;;4.60;;
37164;SDS011;23057;48.554;14.454;2022-11-11T09:18:59;8.45;;;5.45;;
37164;SDS011;23057;48.554;14.454;2022-11-11T09:21:30;7.28;;;5.00;;
37164;SDS011;23057;48.554;14.454;2022-11-11T09:24:00;8.02;;;5.50;;
37164;SDS011;23057;48.554;14.454;2022-11-11T09:26:31;9.13;;;4.32;;
37164;SDS011;23057;48.554;14.454;2022-11-11T09:29:02;7.47;;;4.88;;
37164;SDS011;23057;48.554;14.454;2022-11-11T09:31:33;8.20;;;5.13;;
37164;SDS011;23057;48.554;14.454;2022-11-11T09:34:04;8.85;;;4.82;;
37164;SDS011;23057;48.554;14.454;2022-11-11T09:36:35;8.50;;;4.43;;
37164;SDS011;23057;48.554;14.454;2022-11-11T09:39:06;9.60;;;5.55;;
37164;SDS011;23057;48.554;14.454;2022-11-11T09:48:45;17.27;;;8.65;;
37164;SDS011;23057;48.554;14.454;2022-11-11T09:54:47;8.02;;;5.47;;
37164;SDS011;23057;48.554;14.454;2022-11-11T09:57:39;7.93;;;5.80;;
37164;SDS011;23057;48.554;14.454;2022-11-11T10:00:42;8.63;;;4.75;;
37164;SDS011;23057;48.554;14.454;2022-11-11T10:03:22;7.25;;;4.75;;
37164;SDS011;23057;48.554;14.454;2022-11-11T10:06:00;7.32;;;4.82;;
37164;SDS011;23057;48.554;14.454;2022-11-11T10:08:52;7.68;;;4.60;;
37164;SDS011;23057;48.554;14.454;2022-11-11T10:11:38;7.72;;;3.88;;
37164;SDS011;23057;48.554;14.454;2022-11-11T10:14:31;7.68;;;4.65;;
37164;SDS011;23057;48.554;14.454;2022-11-11T10:17:13;6.82;;;4.05;;
37164;SDS011;23057;48.554;14.454;2022-11-11T10:22:39;5.32;;;4.20;;
37164;SDS011;23057;48.554;14.454;2022-11-11T10:25:22;10.93;;;5.18;;
37164;SDS011;23057;48.554;14.454;2022-11-11T10:27:57;7.68;;;5.10;;
37164;SDS011;23057;48.554;14.454;2022-11-11T10:30:32;12.60;;;5.47;;
37164;SDS011;23057;48.554;14.454;2022-11-11T10:33:15;8.98;;;4.50;;
37164;SDS011;23057;48.554;14.454;2022-11-11T10:35:58;5.32;;;3.83;;
37164;SDS011;23057;48.554;14.454;2022-11-11T10:38:45;5.75;;;4.00;;
37164;SDS011;23057;48.554;14.454;2022-11-11T10:41:38;6.45;;;3.80;;
37164;SDS011;23057;48.554;14.454;2022-11-11T10:47:05;5.88;;;3.63;;
37164;SDS011;23057;48.554;14.454;2022-11-11T10:53:16;9.23;;;4.05;;
37164;SDS011;23057;48.554;14.454;2022-11-11T10:57:11;8.68;;;3.78;;
37164;SDS011;23057;48.554;14.454;2022-11-11T11:02:47;8.85;;;4.70;;
37164;SDS011;23057;48.554;14.454;2022-11-11T11:06:07;9.93;;;5.10;;
37164;SDS011;23057;48.554;14.454;2022-11-11T11:08:53;6.95;;;4.90;;
37164;SDS011;23057;48.554;14.454;2022-11-11T11:11:51;7.38;;;4.43;;
37164;SDS011;23057;48.554;14.454;2022-11-11T11:14:38;10.77;;;5.03;;
37164;SDS011;23057;48.554;14.454;2022-11-11T11:17:21;9.52;;;4.85;;
37164;SDS011;23057;48.554;14.454;2022-11-11T11:22:44;6.57;;;4.75;;
37164;SDS011;23057;48.554;14.454;2022-11-11T11:25:29;14.35;;;8.18;;
37164;SDS011;23057;48.554;14.454;2022-11-11T11:28:06;15.85;;;8.18;;
37164;SDS011;23057;48.554;14.454;2022-11-11T11:36:25;6.78;;;3.80;;
37164;SDS011;23057;48.554;14.454;2022-11-11T11:38:56;8.05;;;4.30;;
37164;SDS011;23057;48.554;14.454;2022-11-11T11:41:40;7.32;;;4.05;;
37164;SDS011;23057;48.554;14.454;2022-11-11T11:44:26;5.82;;;3.85;;
37164;SDS011;23057;48.554;14.454;2022-11-11T11:47:12;8.32;;;4.20;;
37164;SDS011;23057;48.554;14.454;2022-11-11T11:50:29;9.18;;;3.70;;
37164;SDS011;23057;48.554;14.454;2022-11-11T11:56:48;9.48;;;3.45;;
37164;SDS011;23057;48.554;14.454;2022-11-11T11:59:36;8.00;;;3.83;;
37164;SDS011;23057;48.554;14.454;2022-11-11T12:21:21;4.88;;;3.00;;
37164;SDS011;23057;48.554;14.454;2022-11-11T12:27:04;4.10;;;2.63;;
37164;SDS011;23057;48.554;14.454;2022-11-11T12:30:09;6.22;;;2.83;;
37164;SDS011;23057;48.554;14.454;2022-11-11T12:39:10;4.90;;;2.80;;
37164;SDS011;23057;48.554;14.454;2022-11-11T12:45:38;4.43;;;2.88;;
37164;SDS011;23057;48.554;14.454;2022-11-11T12:51:50;4.82;;;3.05;;
37164;SDS011;23057;48.554;14.454;2022-11-11T12:55:17;4.85;;;2.63;;
37164;SDS011;23057;48.554;14.454;2022-11-11T12:58:09;5.72;;;2.88;;
37164;SDS011;23057;48.554;14.454;2022-11-11T13:01:27;7.38;;;3.13;;
37164;SDS011;23057;48.554;14.454;2022-11-11T13:17:11;7.40;;;3.58;;
37164;SDS011;23057;48.554;14.454;2022-11-11T13:22:29;4.07;;;2.83;;
37164;SDS011;23057;48.554;14.454;2022-11-11T13:25:02;3.75;;;2.75;;
37164;SDS011;23057;48.554;14.454;2022-11-11T13:27:41;4.60;;;2.80;;
37164;SDS011;23057;48.554;14.454;2022-11-11T13:33:26;5.30;;;3.13;;
37164;SDS011;23057;48.554;14.454;2022-11-11T13:36:16;5.75;;;3.25;;
37164;SDS011;23057;48.554;14.454;2022-11-11T13:38:57;4.28;;;2.47;;
37164;SDS011;23057;48.554;14.454;2022-11-11T13:41:34;4.13;;;2.65;;
37164;SDS011;23057;48.554;14.454;2022-11-11T13:47:11;4.93;;;2.90;;
37164;SDS011;23057;48.554;14.454;2022-11-11T13:49:59;5.40;;;2.63;;
37164;SDS011;23057;48.554;14.454;2022-11-11T13:52:44;4.35;;;2.78;;
37164;SDS011;23057;48.554;14.454;2022-11-11T13:55:37;6.30;;;3.05;;
37164;SDS011;23057;48.554;14.454;2022-11-11T13:58:24;4.15;;;2.65;;
37164;SDS011;23057;48.554;14.454;2022-11-11T14:01:05;3.20;;;2.30;;
37164;SDS011;23057;48.554;14.454;2022-11-11T14:13:56;5.93;;;2.63;;
37164;SDS011;23057;48.554;14.454;2022-11-11T14:17:03;3.88;;;2.80;;
37164;SDS011;23057;48.554;14.454;2022-11-11T14:19:44;4.35;;;2.85;;
37164;SDS011;23057;48.554;14.454;2022-11-11T14:22:32;4.28;;;3.25;;
37164;SDS011;23057;48.554;14.454;2022-11-11T14:27:57;4.32;;;2.88;;
37164;SDS011;23057;48.554;14.454;2022-11-11T14:30:32;5.40;;;2.72;;
37164;SDS011;23057;48.554;14.454;2022-11-11T14:40:10;5.47;;;2.75;;
37164;SDS011;23057;48.554;14.454;2022-11-11T14:42:55;8.45;;;3.15;;
37164;SDS011;23057;48.554;14.454;2022-11-11T14:47:59;5.03;;;3.00;;
37164;SDS011;23057;48.554;14.454;2022-11-11T14:53:02;7.82;;;3.63;;
37164;SDS011;23057;48.554;14.454;2022-11-11T14:55:53;5.93;;;3.15;;
37164;SDS011;23057;48.554;14.454;2022-11-11T14:58:26;7.57;;;4.47;;
37164;SDS011;23057;48.554;14.454;2022-11-11T15:01:13;4.72;;;3.25;;
37164;SDS011;23057;48.554;14.454;2022-11-11T15:03:50;6.25;;;3.60;;
37164;SDS011;23057;48.554;14.454;2022-11-11T15:06:26;6.95;;;4.10;;
37164;SDS011;23057;48.554;14.454;2022-11-11T15:12:37;6.05;;;3.35;;
37164;SDS011;23057;48.554;14.454;2022-11-11T15:15:46;6.00;;;3.88;;
37164;SDS011;23057;48.554;14.454;2022-11-11T15:22:09;5.20;;;3.40;;
37164;SDS011;23057;48.554;14.454;2022-11-11T15:25:10;6.82;;;3.83;;
37164;SDS011;23057;48.554;14.454;2022-11-11T15:31:34;8.32;;;3.88;;
37164;SDS011;23057;48.554;14.454;2022-11-11T15:34:28;7.07;;;4.25;;
37164;SDS011;23057;48.554;14.454;2022-11-11T15:37:13;7.60;;;3.65;;
37164;SDS011;23057;48.554;14.454;2022-11-11T15:39:53;7.63;;;3.70;;
37164;SDS011;23057;48.554;14.454;2022-11-11T15:42:31;6.97;;;4.18;;
37164;SDS011;23057;48.554;14.454;2022-11-11T15:47:57;7.93;;;3.80;;
37164;SDS011;23057;48.554;14.454;2022-11-11T15:50:30;5.57;;;2.85;;
37164;SDS011;23057;48.554;14.454;2022-11-11T15:53:09;13.18;;;3.72;;
37164;SDS011;23057;48.554;14.454;2022-11-11T15:55:43;7.85;;;3.20;;
37164;SDS011;23057;48.554;14.454;2022-11-11T15:58:29;5.68;;;3.60;;
37164;SDS011;23057;48.554;14.454;2022-11-11T16:01:03;8.65;;;3.38;;
37164;SDS011;23057;48.554;14.454;2022-11-11T16:03:40;8.70;;;3.67;;
37164;SDS011;23057;48.554;14.454;2022-11-11T16:06:14;5.68;;;3.50;;
37164;SDS011;23057;48.554;14.454;2022-11-11T16:08:48;7.28;;;4.10;;
37164;SDS011;23057;48.554;14.454;2022-11-11T16:11:25;5.47;;;3.95;;
37164;SDS011;23057;48.554;14.454;2022-11-11T16:13:57;11.18;;;5.03;;
37164;SDS011;23057;48.554;14.454;2022-11-11T16:16:35;20.45;;;8.38;;
37164;SDS011;23057;48.554;14.454;2022-11-11T16:22:10;8.13;;;5.45;;
37164;SDS011;23057;48.554;14.454;2022-11-11T16:25:17;11.10;;;6.45;;
37164;SDS011;23057;48.554;14.454;2022-11-11T16:27:51;9.57;;;5.85;;
37164;SDS011;23057;48.554;14.454;2022-11-11T16:30:27;8.70;;;4.97;;
37164;SDS011;23057;48.554;14.454;2022-11-11T16:33:17;5.68;;;3.80;;
37164;SDS011;23057;48.554;14.454;2022-11-11T16:36:07;6.53;;;4.20;;
37164;SDS011;23057;48.554;14.454;2022-11-11T16:38:40;4.78;;;4.13;;
37164;SDS011;23057;48.554;14.454;2022-11-11T16:41:29;9.63;;;4.72;;
37164;SDS011;23057;48.554;14.454;2022-11-11T16:44:27;7.75;;;4.13;;
37164;SDS011;23057;48.554;14.454;2022-11-11T16:52:56;8.10;;;4.82;;
37164;SDS011;23057;48.554;14.454;2022-11-11T16:55:37;6.43;;;4.75;;
37164;SDS011;23057;48.554;14.454;2022-11-11T16:58:17;7.95;;;4.40;;
37164;SDS011;23057;48.554;14.454;2022-11-11T17:01:01;9.70;;;4.18;;
37164;SDS011;23057;48.554;14.454;2022-11-11T17:03:33;8.13;;;4.88;;
37164;SDS011;23057;48.554;14.454;2022-11-11T17:06:05;7.93;;;5.18;;
37164;SDS011;23057;48.554;14.454;2022-11-11T17:08:42;9.55;;;5.35;;
37164;SDS011;23057;48.554;14.454;2022-11-11T17:11:57;8.95;;;5.10;;
37164;SDS011;23057;48.554;14.454;2022-11-11T17:14:08;6.93;;;5.03;;
37164;SDS011;23057;48.554;14.454;2022-11-11T17:16:39;12.57;;;6.68;;
37164;SDS011;23057;48.554;14.454;2022-11-11T17:19:10;8.15;;;5.32;;
37164;SDS011;23057;48.554;14.454;2022-11-11T17:21:41;12.40;;;6.05;;
37164;SDS011;23057;48.554;14.454;2022-11-11T17:24:12;8.25;;;4.78;;
37164;SDS011;23057;48.554;14.454;2022-11-11T17:26:43;10.02;;;5.25;;
37164;SDS011;23057;48.554;14.454;2022-11-11T17:29:14;10.23;;;5.07;;
37164;SDS011;23057;48.554;14.454;2022-11-11T17:31:45;10.13;;;4.85;;
37164;SDS011;23057;48.554;14.454;2022-11-11T17:34:16;7.13;;;4.55;;
37164;SDS011;23057;48.554;14.454;2022-11-11T17:36:47;9.52;;;5.03;;
37164;SDS011;23057;48.554;14.454;2022-11-11T17:39:17;10.15;;;4.97;;
37164;SDS011;23057;48.554;14.454;2022-11-11T17:41:48;6.82;;;4.32;;
37164;SDS011;23057;48.554;14.454;2022-11-11T17:44:19;8.07;;;5.13;;
37164;SDS011;23057;48.554;14.454;2022-11-11T17:46:50;7.40;;;4.28;;
37164;SDS011;23057;48.554;14.454;2022-11-11T17:49:21;7.95;;;4.65;;
37164;SDS011;23057;48.554;14.454;2022-11-11T17:51:52;7.65;;;4.47;;
37164;SDS011;23057;48.554;14.454;2022-11-11T17:54:22;8.32;;;4.13;;
37164;SDS011;23057;48.554;14.454;2022-11-11T17:56:56;9.93;;;3.88;;